sensor_id;sensor_type;location;lat;lon;timestamp;temperature;humidity
71535;DHT22;59357;51.514;7.438;2022-07-06T00:01:52;14.10;99.90
71535;DHT22;59357;51.514;7.438;2022-07-06T00:04:19;14.00;99.90
71535;DHT22;59357;51.514;7.438;2022-07-06T00:06:45;14.00;99.90
71535;DHT22;59357;51.514;7.438;2022-07-06T00:09:11;14.00;99.90
71535;DHT22;59357;51.514;7.438;2022-07-06T00:11:37;14.10;99.90
71535;DHT22;59357;51.514;7.438;2022-07-06T00:14:04;14.10;99.90
71535;DHT22;59357;51.514;7.438;2022-07-06T00:16:30;14.10;99.90
71535;DHT22;59357;51.514;7.438;2022-07-06T00:18:58;14.10;99.90
71535;DHT22;59357;51.514;7.438;2022-07-06T00:21:24;14.10;99.90
71535;DHT22;59357;51.514;7.438;2022-07-06T00:23:52;14.10;99.90
71535;DHT22;59357;51.514;7.438;2022-07-06T00:26:19;14.10;99.90
71535;DHT22;59357;51.514;7.438;2022-07-06T00:28:46;14.00;99.90
71535;DHT22;59357;51.514;7.438;2022-07-06T00:31:14;14.10;99.90
71535;DHT22;59357;51.514;7.438;2022-07-06T00:33:40;14.20;99.90
71535;DHT22;59357;51.514;7.438;2022-07-06T00:36:06;14.20;99.90
71535;DHT22;59357;51.514;7.438;2022-07-06T00:38:33;14.10;99.90
71535;DHT22;59357;51.514;7.438;2022-07-06T00:41:07;14.10;99.90
71535;DHT22;59357;51.514;7.438;2022-07-06T00:50:13;13.90;99.90
71535;DHT22;59357;51.514;7.438;2022-07-06T00:52:53;13.90;99.90
71535;DHT22;59357;51.514;7.438;2022-07-06T00:59:32;13.80;99.90
71535;DHT22;59357;51.514;7.438;2022-07-06T01:02:24;13.80;99.90
71535;DHT22;59357;51.514;7.438;2022-07-06T01:04:50;14.00;99.90
71535;DHT22;59357;51.514;7.438;2022-07-06T01:07:16;14.10;99.90
71535;DHT22;59357;51.514;7.438;2022-07-06T01:09:42;14.10;99.90
71535;DHT22;59357;51.514;7.438;2022-07-06T01:12:09;14.30;99.90
71535;DHT22;59357;51.514;7.438;2022-07-06T01:14:36;14.20;99.90
71535;DHT22;59357;51.514;7.438;2022-07-06T01:17:02;14.60;99.90
71535;DHT22;59357;51.514;7.438;2022-07-06T01:19:29;14.50;99.90
71535;DHT22;59357;51.514;7.438;2022-07-06T01:21:55;14.50;99.90
71535;DHT22;59357;51.514;7.438;2022-07-06T01:27:53;14.10;99.90
71535;DHT22;59357;51.514;7.438;2022-07-06T01:30:48;14.10;99.90
71535;DHT22;59357;51.514;7.438;2022-07-06T01:33:17;14.20;99.90
71535;DHT22;59357;51.514;7.438;2022-07-06T01:39:03;14.70;99.90
71535;DHT22;59357;51.514;7.438;2022-07-06T01:41:39;14.50;99.90
71535;DHT22;59357;51.514;7.438;2022-07-06T01:44:08;14.50;99.90
71535;DHT22;59357;51.514;7.438;2022-07-06T01:46:38;14.70;99.90
71535;DHT22;59357;51.514;7.438;2022-07-06T01:49:08;15.00;99.90
71535;DHT22;59357;51.514;7.438;2022-07-06T01:51:38;15.00;99.90
71535;DHT22;59357;51.514;7.438;2022-07-06T01:54:04;15.10;99.90
71535;DHT22;59357;51.514;7.438;2022-07-06T01:56:29;15.10;99.90
71535;DHT22;59357;51.514;7.438;2022-07-06T01:59:07;15.10;99.90
71535;DHT22;59357;51.514;7.438;2022-07-06T02:01:33;15.00;99.90
71535;DHT22;59357;51.514;7.438;2022-07-06T02:04:01;15.00;99.90
71535;DHT22;59357;51.514;7.438;2022-07-06T02:06:38;14.70;99.90
71535;DHT22;59357;51.514;7.438;2022-07-06T02:09:04;14.60;99.90
71535;DHT22;59357;51.514;7.438;2022-07-06T02:11:32;14.50;99.90
71535;DHT22;59357;51.514;7.438;2022-07-06T02:13:58;14.80;99.90
71535;DHT22;59357;51.514;7.438;2022-07-06T02:16:24;14.80;99.90
71535;DHT22;59357;51.514;7.438;2022-07-06T02:18:55;14.60;99.90
71535;DHT22;59357;51.514;7.438;2022-07-06T02:21:21;14.60;99.90
71535;DHT22;59357;51.514;7.438;2022-07-06T02:23:47;14.60;99.90
71535;DHT22;59357;51.514;7.438;2022-07-06T02:26:13;14.70;99.90
71535;DHT22;59357;51.514;7.438;2022-07-06T02:28:39;14.80;99.90
71535;DHT22;59357;51.514;7.438;2022-07-06T02:31:06;14.80;99.90
71535;DHT22;59357;51.514;7.438;2022-07-06T02:33:32;14.70;99.90
71535;DHT22;59357;51.514;7.438;2022-07-06T02:35:58;14.60;99.90
71535;DHT22;59357;51.514;7.438;2022-07-06T02:38:24;14.50;99.90
71535;DHT22;59357;51.514;7.438;2022-07-06T02:40:51;14.40;99.90
71535;DHT22;59357;51.514;7.438;2022-07-06T02:43:16;14.20;99.90
71535;DHT22;59357;51.514;7.438;2022-07-06T02:59:52;13.80;99.90
71535;DHT22;59357;51.514;7.438;2022-07-06T03:02:23;13.60;99.90
71535;DHT22;59357;51.514;7.438;2022-07-06T03:12:04;13.40;99.90
71535;DHT22;59357;51.514;7.438;2022-07-06T03:14:32;13.40;99.90
71535;DHT22;59357;51.514;7.438;2022-07-06T03:16:58;13.30;99.90
71535;DHT22;59357;51.514;7.438;2022-07-06T03:19:25;13.20;99.90
71535;DHT22;59357;51.514;7.438;2022-07-06T03:26:09;12.90;99.90
71535;DHT22;59357;51.514;7.438;2022-07-06T03:28:36;12.80;99.90
71535;DHT22;59357;51.514;7.438;2022-07-06T03:31:03;12.90;99.90
71535;DHT22;59357;51.514;7.438;2022-07-06T03:33:31;13.00;99.90
71535;DHT22;59357;51.514;7.438;2022-07-06T03:36:10;13.00;99.90
71535;DHT22;59357;51.514;7.438;2022-07-06T03:38:36;13.10;99.90
71535;DHT22;59357;51.514;7.438;2022-07-06T03:41:05;13.30;99.90
71535;DHT22;59357;51.514;7.438;2022-07-06T03:43:32;13.80;99.90
71535;DHT22;59357;51.514;7.438;2022-07-06T03:45:58;14.00;99.90
71535;DHT22;59357;51.514;7.438;2022-07-06T03:48:24;14.10;99.90
71535;DHT22;59357;51.514;7.438;2022-07-06T03:50:54;14.30;99.90
71535;DHT22;59357;51.514;7.438;2022-07-06T03:53:26;14.10;99.90
71535;DHT22;59357;51.514;7.438;2022-07-06T03:56:19;14.20;99.90
71535;DHT22;59357;51.514;7.438;2022-07-06T04:14:29;14.80;99.90
71535;DHT22;59357;51.514;7.438;2022-07-06T04:16:56;15.60;99.90
71535;DHT22;59357;51.514;7.438;2022-07-06T04:19:22;15.50;99.90
71535;DHT22;59357;51.514;7.438;2022-07-06T04:30:42;16.10;99.90
71535;DHT22;59357;51.514;7.438;2022-07-06T04:36:39;16.90;95.90
71535;DHT22;59357;51.514;7.438;2022-07-06T05:24:15;25.20;51.90
71535;DHT22;59357;51.514;7.438;2022-07-06T05:32:26;27.20;45.70
71535;DHT22;59357;51.514;7.438;2022-07-06T05:35:25;27.20;44.70
71535;DHT22;59357;51.514;7.438;2022-07-06T05:46:41;28.70;41.40
71535;DHT22;59357;51.514;7.438;2022-07-06T05:49:14;30.00;39.10
71535;DHT22;59357;51.514;7.438;2022-07-06T05:59:25;30.60;35.60
71535;DHT22;59357;51.514;7.438;2022-07-06T06:01:57;30.30;37.30
71535;DHT22;59357;51.514;7.438;2022-07-06T06:04:27;31.00;34.80
71535;DHT22;59357;51.514;7.438;2022-07-06T06:06:53;29.50;36.40
71535;DHT22;59357;51.514;7.438;2022-07-06T06:09:19;29.10;38.50
71535;DHT22;59357;51.514;7.438;2022-07-06T06:11:47;29.30;37.00
71535;DHT22;59357;51.514;7.438;2022-07-06T06:14:14;29.50;36.80
71535;DHT22;59357;51.514;7.438;2022-07-06T06:16:40;30.80;35.20
71535;DHT22;59357;51.514;7.438;2022-07-06T06:19:06;28.40;37.60
71535;DHT22;59357;51.514;7.438;2022-07-06T06:21:32;26.60;42.00
71535;DHT22;59357;51.514;7.438;2022-07-06T06:23:58;28.00;41.80
71535;DHT22;59357;51.514;7.438;2022-07-06T06:26:25;29.10;38.90
71535;DHT22;59357;51.514;7.438;2022-07-06T06:28:50;27.20;39.70
71535;DHT22;59357;51.514;7.438;2022-07-06T06:31:16;26.50;41.60
71535;DHT22;59357;51.514;7.438;2022-07-06T06:37:52;24.50;45.10
71535;DHT22;59357;51.514;7.438;2022-07-06T06:40:20;24.80;44.50
71535;DHT22;59357;51.514;7.438;2022-07-06T06:42:47;24.30;46.30
71535;DHT22;59357;51.514;7.438;2022-07-06T06:45:16;24.00;46.40
71535;DHT22;59357;51.514;7.438;2022-07-06T06:47:56;23.80;47.80
71535;DHT22;59357;51.514;7.438;2022-07-06T06:50:28;23.10;47.30
71535;DHT22;59357;51.514;7.438;2022-07-06T06:56:25;22.00;50.20
71535;DHT22;59357;51.514;7.438;2022-07-06T06:58:54;20.70;52.40
71535;DHT22;59357;51.514;7.438;2022-07-06T07:01:29;20.50;54.10
71535;DHT22;59357;51.514;7.438;2022-07-06T07:03:58;20.60;53.70
71535;DHT22;59357;51.514;7.438;2022-07-06T07:06:24;20.50;54.50
71535;DHT22;59357;51.514;7.438;2022-07-06T07:08:59;20.30;54.40
71535;DHT22;59357;51.514;7.438;2022-07-06T07:11:25;20.20;54.90
71535;DHT22;59357;51.514;7.438;2022-07-06T07:23:01;19.90;55.80
71535;DHT22;59357;51.514;7.438;2022-07-06T07:35:40;20.30;56.40
71535;DHT22;59357;51.514;7.438;2022-07-06T07:38:07;21.10;55.10
71535;DHT22;59357;51.514;7.438;2022-07-06T07:40:40;21.30;53.30
71535;DHT22;59357;51.514;7.438;2022-07-06T07:46:10;20.80;54.70
71535;DHT22;59357;51.514;7.438;2022-07-06T07:48:41;21.30;54.20
71535;DHT22;59357;51.514;7.438;2022-07-06T07:51:11;21.60;52.60
71535;DHT22;59357;51.514;7.438;2022-07-06T07:53:37;22.10;51.40
71535;DHT22;59357;51.514;7.438;2022-07-06T07:56:05;23.00;49.90
71535;DHT22;59357;51.514;7.438;2022-07-06T07:58:33;23.80;48.60
71535;DHT22;59357;51.514;7.438;2022-07-06T08:01:00;24.50;46.80
71535;DHT22;59357;51.514;7.438;2022-07-06T08:03:26;24.40;45.20
71535;DHT22;59357;51.514;7.438;2022-07-06T08:05:52;25.00;45.40
71535;DHT22;59357;51.514;7.438;2022-07-06T08:08:18;24.70;44.20
71535;DHT22;59357;51.514;7.438;2022-07-06T08:10:47;24.30;46.40
71535;DHT22;59357;51.514;7.438;2022-07-06T08:13:16;24.20;44.20
71535;DHT22;59357;51.514;7.438;2022-07-06T08:15:42;26.90;44.10
71535;DHT22;59357;51.514;7.438;2022-07-06T08:18:08;25.10;42.40
71535;DHT22;59357;51.514;7.438;2022-07-06T08:20:36;23.90;45.70
71535;DHT22;59357;51.514;7.438;2022-07-06T08:23:04;23.00;47.90
71535;DHT22;59357;51.514;7.438;2022-07-06T08:25:31;24.70;47.20
71535;DHT22;59357;51.514;7.438;2022-07-06T08:27:57;26.70;41.80
71535;DHT22;59357;51.514;7.438;2022-07-06T08:30:26;24.80;42.60
71535;DHT22;59357;51.514;7.438;2022-07-06T08:32:52;22.70;46.30
71535;DHT22;59357;51.514;7.438;2022-07-06T08:35:21;22.10;48.40
71535;DHT22;59357;51.514;7.438;2022-07-06T08:37:47;20.80;49.50
71535;DHT22;59357;51.514;7.438;2022-07-06T08:40:13;20.20;52.20
71535;DHT22;59357;51.514;7.438;2022-07-06T08:42:39;19.90;53.60
71535;DHT22;59357;51.514;7.438;2022-07-06T08:45:06;19.40;53.50
71535;DHT22;59357;51.514;7.438;2022-07-06T08:47:36;18.90;53.60
71535;DHT22;59357;51.514;7.438;2022-07-06T08:50:03;18.60;54.50
71535;DHT22;59357;51.514;7.438;2022-07-06T08:52:30;18.70;54.50
71535;DHT22;59357;51.514;7.438;2022-07-06T08:54:56;18.90;55.20
71535;DHT22;59357;51.514;7.438;2022-07-06T08:57:22;19.20;54.80
71535;DHT22;59357;51.514;7.438;2022-07-06T09:00:08;19.50;54.70
71535;DHT22;59357;51.514;7.438;2022-07-06T09:02:53;20.20;53.30
71535;DHT22;59357;51.514;7.438;2022-07-06T09:05:23;20.60;52.90
71535;DHT22;59357;51.514;7.438;2022-07-06T09:07:50;20.70;52.70
71535;DHT22;59357;51.514;7.438;2022-07-06T09:10:18;21.30;50.90
71535;DHT22;59357;51.514;7.438;2022-07-06T09:12:45;22.30;49.50
71535;DHT22;59357;51.514;7.438;2022-07-06T09:15:11;22.60;47.50
71535;DHT22;59357;51.514;7.438;2022-07-06T09:17:42;23.00;46.80
71535;DHT22;59357;51.514;7.438;2022-07-06T09:20:09;23.10;46.00
71535;DHT22;59357;51.514;7.438;2022-07-06T09:22:36;23.30;46.90
71535;DHT22;59357;51.514;7.438;2022-07-06T09:25:13;23.30;45.10
71535;DHT22;59357;51.514;7.438;2022-07-06T09:27:46;23.20;44.70
71535;DHT22;59357;51.514;7.438;2022-07-06T09:30:21;22.80;45.50
71535;DHT22;59357;51.514;7.438;2022-07-06T09:32:52;22.70;45.70
71535;DHT22;59357;51.514;7.438;2022-07-06T09:35:26;22.90;45.20
71535;DHT22;59357;51.514;7.438;2022-07-06T09:40:36;26.50;40.10
71535;DHT22;59357;51.514;7.438;2022-07-06T09:43:13;30.80;33.80
71535;DHT22;59357;51.514;7.438;2022-07-06T09:45:42;30.70;31.60
71535;DHT22;59357;51.514;7.438;2022-07-06T09:48:09;30.70;32.70
71535;DHT22;59357;51.514;7.438;2022-07-06T09:50:44;31.20;33.00
71535;DHT22;59357;51.514;7.438;2022-07-06T09:53:11;31.10;32.40
71535;DHT22;59357;51.514;7.438;2022-07-06T09:55:38;31.10;32.30
71535;DHT22;59357;51.514;7.438;2022-07-06T09:58:04;29.60;32.80
71535;DHT22;59357;51.514;7.438;2022-07-06T10:00:30;29.20;33.30
71535;DHT22;59357;51.514;7.438;2022-07-06T10:02:56;32.60;31.20
71535;DHT22;59357;51.514;7.438;2022-07-06T10:05:23;29.20;31.80
71535;DHT22;59357;51.514;7.438;2022-07-06T10:07:57;26.70;36.10
71535;DHT22;59357;51.514;7.438;2022-07-06T10:10:28;25.30;38.70
71535;DHT22;59357;51.514;7.438;2022-07-06T10:12:59;24.50;40.70
71535;DHT22;59357;51.514;7.438;2022-07-06T10:15:27;24.50;41.10
71535;DHT22;59357;51.514;7.438;2022-07-06T10:17:54;27.40;39.60
71535;DHT22;59357;51.514;7.438;2022-07-06T10:20:21;34.10;30.10
71535;DHT22;59357;51.514;7.438;2022-07-06T10:32:02;37.10;25.00
71535;DHT22;59357;51.514;7.438;2022-07-06T10:34:29;32.70;26.40
71535;DHT22;59357;51.514;7.438;2022-07-06T10:37:00;29.50;30.30
71535;DHT22;59357;51.514;7.438;2022-07-06T10:43:46;25.70;35.40
71535;DHT22;59357;51.514;7.438;2022-07-06T10:46:38;23.90;39.30
71535;DHT22;59357;51.514;7.438;2022-07-06T10:49:15;23.30;40.60
71535;DHT22;59357;51.514;7.438;2022-07-06T10:51:42;23.10;41.50
71535;DHT22;59357;51.514;7.438;2022-07-06T10:54:10;23.00;42.10
71535;DHT22;59357;51.514;7.438;2022-07-06T11:00:57;25.00;40.40
71535;DHT22;59357;51.514;7.438;2022-07-06T11:04:22;25.30;39.00
71535;DHT22;59357;51.514;7.438;2022-07-06T11:07:29;25.60;37.80
71535;DHT22;59357;51.514;7.438;2022-07-06T11:10:05;26.10;37.80
71535;DHT22;59357;51.514;7.438;2022-07-06T11:12:46;25.80;37.40
71535;DHT22;59357;51.514;7.438;2022-07-06T11:15:49;25.40;38.40
71535;DHT22;59357;51.514;7.438;2022-07-06T11:18:19;25.00;39.00
71535;DHT22;59357;51.514;7.438;2022-07-06T11:23:46;24.40;40.00
71535;DHT22;59357;51.514;7.438;2022-07-06T11:26:13;24.40;39.60
71535;DHT22;59357;51.514;7.438;2022-07-06T11:28:40;24.20;40.00
71535;DHT22;59357;51.514;7.438;2022-07-06T11:31:06;23.50;41.10
71535;DHT22;59357;51.514;7.438;2022-07-06T11:33:32;23.00;41.80
71535;DHT22;59357;51.514;7.438;2022-07-06T11:36:12;22.70;42.60
71535;DHT22;59357;51.514;7.438;2022-07-06T11:38:39;22.30;43.50
71535;DHT22;59357;51.514;7.438;2022-07-06T11:41:08;21.90;43.90
71535;DHT22;59357;51.514;7.438;2022-07-06T11:43:37;21.70;44.40
71535;DHT22;59357;51.514;7.438;2022-07-06T11:46:03;22.00;43.80
71535;DHT22;59357;51.514;7.438;2022-07-06T11:48:29;22.70;42.80
71535;DHT22;59357;51.514;7.438;2022-07-06T11:51:02;22.90;42.20
71535;DHT22;59357;51.514;7.438;2022-07-06T11:53:29;22.80;42.20
71535;DHT22;59357;51.514;7.438;2022-07-06T11:55:55;23.20;42.20
71535;DHT22;59357;51.514;7.438;2022-07-06T11:58:27;24.10;41.30
71535;DHT22;59357;51.514;7.438;2022-07-06T12:01:07;24.70;40.20
71535;DHT22;59357;51.514;7.438;2022-07-06T12:03:33;24.40;39.60
71535;DHT22;59357;51.514;7.438;2022-07-06T12:06:12;23.70;40.20
71535;DHT22;59357;51.514;7.438;2022-07-06T12:08:43;23.80;40.20
71535;DHT22;59357;51.514;7.438;2022-07-06T12:11:10;23.10;40.30
71535;DHT22;59357;51.514;7.438;2022-07-06T12:13:37;23.20;41.40
71535;DHT22;59357;51.514;7.438;2022-07-06T12:16:12;23.40;41.90
71535;DHT22;59357;51.514;7.438;2022-07-06T12:18:42;23.80;40.30
71535;DHT22;59357;51.514;7.438;2022-07-06T12:21:12;23.10;40.50
71535;DHT22;59357;51.514;7.438;2022-07-06T12:23:41;23.20;41.30
71535;DHT22;59357;51.514;7.438;2022-07-06T12:26:08;23.50;40.80
71535;DHT22;59357;51.514;7.438;2022-07-06T12:28:34;23.60;40.00
71535;DHT22;59357;51.514;7.438;2022-07-06T12:31:00;23.20;40.30
71535;DHT22;59357;51.514;7.438;2022-07-06T12:33:26;23.30;39.50
71535;DHT22;59357;51.514;7.438;2022-07-06T12:36:15;23.50;39.80
71535;DHT22;59357;51.514;7.438;2022-07-06T12:38:47;23.90;40.40
71535;DHT22;59357;51.514;7.438;2022-07-06T12:41:33;24.30;40.00
71535;DHT22;59357;51.514;7.438;2022-07-06T12:44:03;23.80;39.70
71535;DHT22;59357;51.514;7.438;2022-07-06T12:46:32;23.60;40.90
71535;DHT22;59357;51.514;7.438;2022-07-06T12:48:59;23.80;40.80
71535;DHT22;59357;51.514;7.438;2022-07-06T12:51:25;23.80;40.00
71535;DHT22;59357;51.514;7.438;2022-07-06T12:53:52;23.90;38.80
71535;DHT22;59357;51.514;7.438;2022-07-06T12:56:18;24.30;39.50
71535;DHT22;59357;51.514;7.438;2022-07-06T12:59:00;24.40;38.20
71535;DHT22;59357;51.514;7.438;2022-07-06T13:01:27;23.90;38.80
71535;DHT22;59357;51.514;7.438;2022-07-06T13:03:57;23.70;39.90
71535;DHT22;59357;51.514;7.438;2022-07-06T13:06:33;23.70;39.50
71535;DHT22;59357;51.514;7.438;2022-07-06T13:09:00;23.30;37.20
71535;DHT22;59357;51.514;7.438;2022-07-06T13:11:26;23.70;38.80
71535;DHT22;59357;51.514;7.438;2022-07-06T13:13:52;23.90;38.20
71535;DHT22;59357;51.514;7.438;2022-07-06T13:16:18;24.00;38.50
71535;DHT22;59357;51.514;7.438;2022-07-06T13:18:44;24.30;37.60
71535;DHT22;59357;51.514;7.438;2022-07-06T13:21:10;23.80;38.40
71535;DHT22;59357;51.514;7.438;2022-07-06T13:23:36;23.50;39.20
71535;DHT22;59357;51.514;7.438;2022-07-06T13:26:02;23.20;39.80
71535;DHT22;59357;51.514;7.438;2022-07-06T13:28:28;23.00;40.30
71535;DHT22;59357;51.514;7.438;2022-07-06T13:30:54;23.30;40.50
71535;DHT22;59357;51.514;7.438;2022-07-06T13:33:20;23.20;39.00
71535;DHT22;59357;51.514;7.438;2022-07-06T13:35:46;23.00;40.10
71535;DHT22;59357;51.514;7.438;2022-07-06T13:38:14;22.60;40.30
71535;DHT22;59357;51.514;7.438;2022-07-06T13:40:40;22.40;40.60
71535;DHT22;59357;51.514;7.438;2022-07-06T13:43:06;22.40;40.30
71535;DHT22;59357;51.514;7.438;2022-07-06T13:45:32;22.50;40.70
71535;DHT22;59357;51.514;7.438;2022-07-06T13:47:58;22.40;40.90
71535;DHT22;59357;51.514;7.438;2022-07-06T13:50:24;22.30;41.50
71535;DHT22;59357;51.514;7.438;2022-07-06T13:52:52;22.80;41.30
71535;DHT22;59357;51.514;7.438;2022-07-06T13:55:18;23.00;40.50
71535;DHT22;59357;51.514;7.438;2022-07-06T13:57:44;22.70;39.90
71535;DHT22;59357;51.514;7.438;2022-07-06T14:00:12;22.40;40.50
71535;DHT22;59357;51.514;7.438;2022-07-06T14:02:42;22.60;41.50
71535;DHT22;59357;51.514;7.438;2022-07-06T14:05:09;22.70;40.60
71535;DHT22;59357;51.514;7.438;2022-07-06T14:07:35;22.80;41.10
71535;DHT22;59357;51.514;7.438;2022-07-06T14:10:01;23.10;40.90
71535;DHT22;59357;51.514;7.438;2022-07-06T14:12:27;23.20;40.70
71535;DHT22;59357;51.514;7.438;2022-07-06T14:14:52;23.60;39.90
71535;DHT22;59357;51.514;7.438;2022-07-06T14:17:18;23.60;39.50
71535;DHT22;59357;51.514;7.438;2022-07-06T14:19:44;23.20;40.20
71535;DHT22;59357;51.514;7.438;2022-07-06T14:22:10;23.00;39.80
71535;DHT22;59357;51.514;7.438;2022-07-06T14:24:36;22.90;40.20
71535;DHT22;59357;51.514;7.438;2022-07-06T14:27:02;22.80;40.60
71535;DHT22;59357;51.514;7.438;2022-07-06T14:29:28;23.00;41.20
71535;DHT22;59357;51.514;7.438;2022-07-06T14:31:54;23.40;40.80
71535;DHT22;59357;51.514;7.438;2022-07-06T14:34:20;23.70;40.50
71535;DHT22;59357;51.514;7.438;2022-07-06T14:36:46;23.60;39.80
71535;DHT22;59357;51.514;7.438;2022-07-06T14:39:11;23.80;39.80
71535;DHT22;59357;51.514;7.438;2022-07-06T14:41:38;23.90;39.60
71535;DHT22;59357;51.514;7.438;2022-07-06T14:44:05;23.80;40.10
71535;DHT22;59357;51.514;7.438;2022-07-06T14:46:31;23.60;40.20
71535;DHT22;59357;51.514;7.438;2022-07-06T14:48:57;23.30;40.30
71535;DHT22;59357;51.514;7.438;2022-07-06T14:51:23;23.10;40.80
71535;DHT22;59357;51.514;7.438;2022-07-06T14:53:49;22.80;41.20
71535;DHT22;59357;51.514;7.438;2022-07-06T14:56:15;23.20;41.40
71535;DHT22;59357;51.514;7.438;2022-07-06T14:58:40;22.80;41.40
71535;DHT22;59357;51.514;7.438;2022-07-06T15:01:06;22.60;41.70
71535;DHT22;59357;51.514;7.438;2022-07-06T15:03:32;22.20;42.70
71535;DHT22;59357;51.514;7.438;2022-07-06T15:05:58;22.30;42.20
71535;DHT22;59357;51.514;7.438;2022-07-06T15:08:24;22.30;42.10
71535;DHT22;59357;51.514;7.438;2022-07-06T15:10:50;22.50;41.90
71535;DHT22;59357;51.514;7.438;2022-07-06T15:13:16;22.50;42.60
71535;DHT22;59357;51.514;7.438;2022-07-06T15:15:42;22.40;41.70
71535;DHT22;59357;51.514;7.438;2022-07-06T15:18:08;22.40;42.60
71535;DHT22;59357;51.514;7.438;2022-07-06T15:20:34;22.40;42.20
71535;DHT22;59357;51.514;7.438;2022-07-06T15:23:00;22.20;42.30
71535;DHT22;59357;51.514;7.438;2022-07-06T15:25:26;22.00;43.10
71535;DHT22;59357;51.514;7.438;2022-07-06T15:27:52;22.00;42.90
71535;DHT22;59357;51.514;7.438;2022-07-06T15:30:19;22.20;42.60
71535;DHT22;59357;51.514;7.438;2022-07-06T15:32:45;22.50;42.30
71535;DHT22;59357;51.514;7.438;2022-07-06T15:35:11;22.70;41.70
71535;DHT22;59357;51.514;7.438;2022-07-06T15:37:36;22.70;42.20
71535;DHT22;59357;51.514;7.438;2022-07-06T15:40:05;23.10;41.70
71535;DHT22;59357;51.514;7.438;2022-07-06T15:42:34;23.20;41.10
71535;DHT22;59357;51.514;7.438;2022-07-06T15:45:00;23.20;41.20
71535;DHT22;59357;51.514;7.438;2022-07-06T15:47:26;23.00;41.90
71535;DHT22;59357;51.514;7.438;2022-07-06T15:49:51;23.10;41.60
71535;DHT22;59357;51.514;7.438;2022-07-06T15:52:17;23.20;41.30
71535;DHT22;59357;51.514;7.438;2022-07-06T15:54:46;23.40;41.40
71535;DHT22;59357;51.514;7.438;2022-07-06T15:57:12;23.20;41.20
71535;DHT22;59357;51.514;7.438;2022-07-06T15:59:40;23.30;41.10
71535;DHT22;59357;51.514;7.438;2022-07-06T16:02:06;23.80;40.60
71535;DHT22;59357;51.514;7.438;2022-07-06T16:04:32;23.50;40.80
71535;DHT22;59357;51.514;7.438;2022-07-06T16:07:01;23.20;41.10
71535;DHT22;59357;51.514;7.438;2022-07-06T16:09:27;22.90;41.40
71535;DHT22;59357;51.514;7.438;2022-07-06T16:11:55;22.80;41.50
71535;DHT22;59357;51.514;7.438;2022-07-06T16:14:21;23.30;41.10
71535;DHT22;59357;51.514;7.438;2022-07-06T16:16:47;23.40;40.70
71535;DHT22;59357;51.514;7.438;2022-07-06T16:19:13;23.30;41.00
71535;DHT22;59357;51.514;7.438;2022-07-06T16:21:39;23.00;41.70
71535;DHT22;59357;51.514;7.438;2022-07-06T16:24:06;22.40;42.00
71535;DHT22;59357;51.514;7.438;2022-07-06T16:26:31;22.20;42.70
71535;DHT22;59357;51.514;7.438;2022-07-06T16:28:59;22.30;42.40
71535;DHT22;59357;51.514;7.438;2022-07-06T16:31:25;22.40;42.90
71535;DHT22;59357;51.514;7.438;2022-07-06T16:33:51;22.80;42.00
71535;DHT22;59357;51.514;7.438;2022-07-06T16:36:33;23.20;41.50
71535;DHT22;59357;51.514;7.438;2022-07-06T16:39:00;23.20;41.20
71535;DHT22;59357;51.514;7.438;2022-07-06T16:41:46;22.90;41.70
71535;DHT22;59357;51.514;7.438;2022-07-06T16:44:15;22.60;42.00
71535;DHT22;59357;51.514;7.438;2022-07-06T16:46:43;22.30;42.40
71535;DHT22;59357;51.514;7.438;2022-07-06T16:49:09;22.10;42.80
71535;DHT22;59357;51.514;7.438;2022-07-06T16:51:35;22.10;43.60
71535;DHT22;59357;51.514;7.438;2022-07-06T16:54:01;22.20;43.40
71535;DHT22;59357;51.514;7.438;2022-07-06T17:04:22;22.30;43.00
71535;DHT22;59357;51.514;7.438;2022-07-06T17:07:06;22.30;42.60
71535;DHT22;59357;51.514;7.438;2022-07-06T17:09:36;22.10;43.10
71535;DHT22;59357;51.514;7.438;2022-07-06T17:12:16;21.90;42.90
71535;DHT22;59357;51.514;7.438;2022-07-06T17:14:43;21.90;43.60
71535;DHT22;59357;51.514;7.438;2022-07-06T17:25:35;21.90;44.10
71535;DHT22;59357;51.514;7.438;2022-07-06T17:28:05;22.00;44.30
71535;DHT22;59357;51.514;7.438;2022-07-06T17:30:33;21.80;44.40
71535;DHT22;59357;51.514;7.438;2022-07-06T17:33:18;21.80;44.50
71535;DHT22;59357;51.514;7.438;2022-07-06T17:45:03;21.70;45.20
71535;DHT22;59357;51.514;7.438;2022-07-06T17:47:30;21.70;45.30
71535;DHT22;59357;51.514;7.438;2022-07-06T17:50:37;21.70;45.40
71535;DHT22;59357;51.514;7.438;2022-07-06T17:54:17;21.60;45.00
71535;DHT22;59357;51.514;7.438;2022-07-06T18:13:51;20.70;47.50
71535;DHT22;59357;51.514;7.438;2022-07-06T18:58:54;20.30;49.30
71535;DHT22;59357;51.514;7.438;2022-07-06T19:01:31;20.20;50.00
71535;DHT22;59357;51.514;7.438;2022-07-06T19:12:33;20.30;50.90
71535;DHT22;59357;51.514;7.438;2022-07-06T21:02:07;19.50;53.80
71535;DHT22;59357;51.514;7.438;2022-07-06T21:17:39;19.30;54.50
71535;DHT22;59357;51.514;7.438;2022-07-06T21:34:42;19.10;55.80
71535;DHT22;59357;51.514;7.438;2022-07-06T22:21:06;18.70;61.30
71535;DHT22;59357;51.514;7.438;2022-07-06T23:36:00;18.70;69.40
71535;DHT22;59357;51.514;7.438;2022-07-06T23:53:15;18.70;70.40
